Atlanta, MO (63530)

4:30 PM CDT on July 29, 2015 (GMT -0500)
Kirksville Regional | | Change Station
CLOSE
Current Station
Airport
Location: Kirksville,
Elevation: 965 ft
Nearby Weather Stations
Active Advisory: Flood Warning

Elev 965 ft 40.10 °N, 92.55 °W | Updated 35 minutes ago

Clear
Clear
84 °F
Feels Like 84 °F
N
10
Wind Variable Wind from WNW

Today
High -- | Low -- °F
--% Chance of Precip.
Yesterday
High -- | Low -- °F
Precip. -- in
6:05 AM 8:26 PM
Waxing Gibbous, 97% visible
Pressure 30.13 in
Visibility 10.0 miles
Clouds Clear
Heat Index 84 °F
Dew Point 60 °F
Humidity 44%
Rainfall 0.29 in
Snow Depth Not available.
UV 7 out of 12
Pollen 4.90 out of 12
Air Quality Not available.
Flu Activity Not available.
METAR KIRK 292055Z AUTO 30009KT 10SM CLR 29/16 A3014 RMK AO2 SLP201 T02890156 50000

More Conditions Fewer Conditions

Pressure 30.13 in
Visibility 10.0 miles
Clouds Clear
Heat Index 84 °F
Dew Point 60 °F
Humidity 44%
Rainfall 0.29 in
Snow Depth Not available.
UV 7 out of 12
Pollen 4.90 out of 12
Air Quality Not available.
Flu Activity Not available.
METAR KIRK 292055Z AUTO 30009KT 10SM CLR 29/16 A3014 RMK AO2 SLP201 T02890156 50000

More Conditions Fewer Conditions

10-Day Weather Forecast

×

Almanac

Astronomy

Jul. 29, 2015 Rise Set
Actual Time
Civil Twilight
Nautical Twilight
Astronomical Twilight
Moon
Length of Visible Light
Length of Day
Tomorrow will be .
, % of the Moon is Illuminated

Today's Extremes

State Highs State Lows

Community

WunderPhotos

Upload Photos

1,842,160 photos uploaded!

WunderBlogs® & News

Nearby

Air Quality

  Air Quality AQ Index Pollutant
Not available.

Snow Depth

Station Depth Elevation

Earthquake Activity

City Distance Mag. Time & Date
Minimum magnitude displayed is 2.5.

Coastal Water Temperatures

Place Temperature

Stations

Nearby Weather Stations

Station Location Temp. Windchill Dew Point Humidity Wind Precip. Elev Updated Type
                   
Flood Warning
Statement as of 11:04 AM CDT on July 29, 2015

The Flood Warning continues for
the Chariton river near Prairie Hill.
* From this evening to Friday afternoon.
* At 10:45 am Wednesday the stage was 13.0 feet.
* Flood stage is 15.0 feet.
* Minor flooding is forecast.
* Forecast... rise above flood stage by this evening and continue to
rise to near 15.8 feet by early Thursday morning. The river will
fall below flood stage by Thursday afternoon.
* At 15.0 feet... fields along the river begin to flood.

                       Latest
location fs stage day/time forecast

Chariton river
Prairie Hill 15 13.0 Wed 11 am 15.8 early Thursday morning


lat... Lon 3997 9273 3997 9261 3960 9268 3927 9290 3933 9299